sensor_id;sensor_type;location;lat;lon;timestamp;pressure;altitude;pressure_sealevel;temperature;humidity
48386;BME280;34644;47.964;7.982;2024-03-02T00:02:01;95451.69;;;17.49;55.72
48386;BME280;34644;47.964;7.982;2024-03-02T00:09:01;95441.03;;;17.49;55.80
48386;BME280;34644;47.964;7.982;2024-03-02T00:16:02;95446.06;;;17.50;55.68
48386;BME280;34644;47.964;7.982;2024-03-02T00:23:06;95441.25;;;17.52;55.69
48386;BME280;34644;47.964;7.982;2024-03-02T00:37:25;95443.59;;;17.54;55.63
48386;BME280;34644;47.964;7.982;2024-03-02T00:44:25;95447.03;;;17.54;55.87
48386;BME280;34644;47.964;7.982;2024-03-02T00:51:34;95448.63;;;17.56;55.62
48386;BME280;34644;47.964;7.982;2024-03-02T00:58:35;95446.72;;;17.56;55.69
48386;BME280;34644;47.964;7.982;2024-03-02T01:05:35;95448.78;;;17.59;55.59
48386;BME280;34644;47.964;7.982;2024-03-02T01:12:36;95441.88;;;17.58;55.72
48386;BME280;34644;47.964;7.982;2024-03-02T01:19:36;95445.81;;;17.61;55.43
48386;BME280;34644;47.964;7.982;2024-03-02T01:26:37;95440.78;;;17.59;55.38
48386;BME280;34644;47.964;7.982;2024-03-02T01:33:37;95437.50;;;17.62;55.34
48386;BME280;34644;47.964;7.982;2024-03-02T01:40:37;95430.59;;;17.61;55.24
48386;BME280;34644;47.964;7.982;2024-03-02T01:47:38;95436.75;;;17.62;55.37
48386;BME280;34644;47.964;7.982;2024-03-02T01:54:38;95444.44;;;17.63;55.19
48386;BME280;34644;47.964;7.982;2024-03-02T02:01:38;95437.50;;;17.62;55.14
48386;BME280;34644;47.964;7.982;2024-03-02T02:08:39;95428.44;;;17.63;55.11
48386;BME280;34644;47.964;7.982;2024-03-02T02:15:39;95423.41;;;17.62;55.24
48386;BME280;34644;47.964;7.982;2024-03-02T02:22:39;95421.53;;;17.62;55.13
48386;BME280;34644;47.964;7.982;2024-03-02T02:29:39;95409.28;;;17.61;54.97
48386;BME280;34644;47.964;7.982;2024-03-02T02:36:40;95405.53;;;17.62;55.17
48386;BME280;34644;47.964;7.982;2024-03-02T02:43:40;95398.63;;;17.61;55.10
48386;BME280;34644;47.964;7.982;2024-03-02T02:50:41;95390.66;;;17.61;55.00
48386;BME280;34644;47.964;7.982;2024-03-02T02:57:41;95387.97;;;17.61;54.89
48386;BME280;34644;47.964;7.982;2024-03-02T03:04:42;95385.63;;;17.60;54.89
48386;BME280;34644;47.964;7.982;2024-03-02T03:11:42;95375.78;;;17.60;54.87
48386;BME280;34644;47.964;7.982;2024-03-02T03:18:43;95379.53;;;17.59;54.90
48386;BME280;34644;47.964;7.982;2024-03-02T03:25:43;95372.59;;;17.58;54.88
48386;BME280;34644;47.964;7.982;2024-03-02T03:32:43;95368.88;;;17.59;54.98
48386;BME280;34644;47.964;7.982;2024-03-02T03:39:44;95366.50;;;17.58;55.06
48386;BME280;34644;47.964;7.982;2024-03-02T03:46:44;95369.16;;;17.58;54.89
48386;BME280;34644;47.964;7.982;2024-03-02T03:53:44;95370.75;;;17.59;54.94
48386;BME280;34644;47.964;7.982;2024-03-02T04:00:44;95371.06;;;17.57;54.84
48386;BME280;34644;47.964;7.982;2024-03-02T04:07:44;95371.06;;;17.57;54.88
48386;BME280;34644;47.964;7.982;2024-03-02T04:14:45;95372.91;;;17.57;54.87
48386;BME280;34644;47.964;7.982;2024-03-02T04:21:45;95375.88;;;17.55;54.84
48386;BME280;34644;47.964;7.982;2024-03-02T04:28:45;95393.44;;;17.56;54.92
48386;BME280;34644;47.964;7.982;2024-03-02T04:35:45;95396.41;;;17.54;54.90
48386;BME280;34644;47.964;7.982;2024-03-02T04:42:46;95389.22;;;17.55;54.91
48386;BME280;34644;47.964;7.982;2024-03-02T04:49:46;95394.53;;;17.55;55.28
48386;BME280;34644;47.964;7.982;2024-03-02T04:56:47;95406.09;;;17.50;55.28
48386;BME280;34644;47.964;7.982;2024-03-02T05:03:50;95405.63;;;17.48;55.50
48386;BME280;34644;47.964;7.982;2024-03-02T05:10:50;95396.09;;;17.47;55.58
48386;BME280;34644;47.964;7.982;2024-03-02T05:17:50;95394.81;;;17.45;55.50
48386;BME280;34644;47.964;7.982;2024-03-02T05:24:51;95398.88;;;17.42;55.39
48386;BME280;34644;47.964;7.982;2024-03-02T05:31:51;95399.97;;;17.41;55.54
48386;BME280;34644;47.964;7.982;2024-03-02T05:38:51;95400.16;;;17.45;55.77
48386;BME280;34644;47.964;7.982;2024-03-02T05:45:52;95397.63;;;17.40;55.78
48386;BME280;34644;47.964;7.982;2024-03-02T05:52:52;95405.63;;;17.40;55.82
48386;BME280;34644;47.964;7.982;2024-03-02T05:59:52;95404.34;;;17.37;55.84
48386;BME280;34644;47.964;7.982;2024-03-02T06:06:53;95400.59;;;17.38;55.83
48386;BME280;34644;47.964;7.982;2024-03-02T06:13:56;95404.81;;;17.39;55.93
48386;BME280;34644;47.964;7.982;2024-03-02T06:20:56;95397.13;;;17.38;55.88
48386;BME280;34644;47.964;7.982;2024-03-02T06:27:56;95382.72;;;17.39;55.79
48386;BME280;34644;47.964;7.982;2024-03-02T06:34:57;95381.16;;;17.38;55.79
48386;BME280;34644;47.964;7.982;2024-03-02T06:41:57;95378.19;;;17.39;55.83
48386;BME280;34644;47.964;7.982;2024-03-02T06:48:57;95382.25;;;17.36;55.79
48386;BME280;34644;47.964;7.982;2024-03-02T06:55:58;95371.09;;;17.34;55.60
48386;BME280;34644;47.964;7.982;2024-03-02T07:02:59;95386.31;;;17.34;55.57
48386;BME280;34644;47.964;7.982;2024-03-02T07:09:59;95395.22;;;17.29;55.92
48386;BME280;34644;47.964;7.982;2024-03-02T07:16:59;95396.09;;;17.16;56.17
48386;BME280;34644;47.964;7.982;2024-03-02T07:23:59;95384.78;;;17.10;56.60
48386;BME280;34644;47.964;7.982;2024-03-02T07:31:03;95384.00;;;17.10;56.62
48386;BME280;34644;47.964;7.982;2024-03-02T07:38:04;95389.97;;;17.15;56.09
48386;BME280;34644;47.964;7.982;2024-03-02T07:45:05;95384.00;;;17.10;56.54
48386;BME280;34644;47.964;7.982;2024-03-02T07:52:06;95383.19;;;17.09;56.86
48386;BME280;34644;47.964;7.982;2024-03-02T07:59:07;95384.00;;;17.10;57.00
48386;BME280;34644;47.964;7.982;2024-03-02T08:06:08;95384.00;;;17.10;57.12
48386;BME280;34644;47.964;7.982;2024-03-02T08:13:08;95376.78;;;17.10;57.32
48386;BME280;34644;47.964;7.982;2024-03-02T08:20:09;95382.78;;;17.16;54.54
48386;BME280;34644;47.964;7.982;2024-03-02T08:27:09;95379.28;;;17.07;55.82
48386;BME280;34644;47.964;7.982;2024-03-02T08:34:09;95376.31;;;17.08;54.81
48386;BME280;34644;47.964;7.982;2024-03-02T08:41:10;95376.63;;;17.07;55.50
48386;BME280;34644;47.964;7.982;2024-03-02T08:48:13;95362.09;;;17.13;49.78
48386;BME280;34644;47.964;7.982;2024-03-02T08:55:13;95362.69;;;17.10;50.70
48386;BME280;34644;47.964;7.982;2024-03-02T09:02:13;95358.31;;;17.14;47.72
48386;BME280;34644;47.964;7.982;2024-03-02T09:09:13;95369.34;;;17.21;42.52
48386;BME280;34644;47.964;7.982;2024-03-02T09:16:14;95364.53;;;17.00;49.05
48386;BME280;34644;47.964;7.982;2024-03-02T09:23:14;95367.31;;;16.95;51.09
48386;BME280;34644;47.964;7.982;2024-03-02T09:30:14;95358.84;;;16.93;52.35
48386;BME280;34644;47.964;7.982;2024-03-02T09:37:15;95359.03;;;16.97;53.07
48386;BME280;34644;47.964;7.982;2024-03-02T09:44:15;95350.75;;;16.98;53.73
48386;BME280;34644;47.964;7.982;2024-03-02T09:51:15;95336.47;;;17.26;47.92
48386;BME280;34644;47.964;7.982;2024-03-02T09:58:19;95332.59;;;17.32;46.42
48386;BME280;34644;47.964;7.982;2024-03-02T10:05:26;95325.16;;;17.20;46.99
48386;BME280;34644;47.964;7.982;2024-03-02T10:12:28;95314.69;;;17.24;47.60
48386;BME280;34644;47.964;7.982;2024-03-02T10:19:28;95308.19;;;17.07;47.08
48386;BME280;34644;47.964;7.982;2024-03-02T10:26:32;95308.47;;;16.97;49.36
48386;BME280;34644;47.964;7.982;2024-03-02T10:33:32;95296.72;;;16.98;49.72
48386;BME280;34644;47.964;7.982;2024-03-02T10:40:33;95290.16;;;16.95;50.57
48386;BME280;34644;47.964;7.982;2024-03-02T10:47:33;95282.63;;;16.97;51.50
48386;BME280;34644;47.964;7.982;2024-03-02T10:54:35;95278.88;;;16.98;52.01
48386;BME280;34644;47.964;7.982;2024-03-02T11:01:39;95267.13;;;16.99;52.56
48386;BME280;34644;47.964;7.982;2024-03-02T11:08:42;95266.34;;;16.99;52.99
48386;BME280;34644;47.964;7.982;2024-03-02T11:15:44;95263.38;;;17.00;53.24
48386;BME280;34644;47.964;7.982;2024-03-02T11:22:45;95252.75;;;17.00;53.49
48386;BME280;34644;47.964;7.982;2024-03-02T11:29:45;95256.69;;;17.03;53.63
48386;BME280;34644;47.964;7.982;2024-03-02T11:36:46;95239.59;;;17.04;54.06
48386;BME280;34644;47.964;7.982;2024-03-02T11:43:46;95231.31;;;17.06;54.32
48386;BME280;34644;47.964;7.982;2024-03-02T11:50:47;95238.50;;;17.05;54.35
48386;BME280;34644;47.964;7.982;2024-03-02T11:57:48;95219.56;;;17.07;54.45
48386;BME280;34644;47.964;7.982;2024-03-02T12:04:50;95210.47;;;17.08;54.84
48386;BME280;34644;47.964;7.982;2024-03-02T12:12:00;95193.44;;;17.09;54.92
48386;BME280;34644;47.964;7.982;2024-03-02T12:19:01;95193.91;;;17.11;55.14
48386;BME280;34644;47.964;7.982;2024-03-02T12:26:01;95189.38;;;17.11;55.33
48386;BME280;34644;47.964;7.982;2024-03-02T12:33:01;95176.84;;;17.12;55.33
48386;BME280;34644;47.964;7.982;2024-03-02T12:40:02;95163.53;;;17.12;55.62
48386;BME280;34644;47.964;7.982;2024-03-02T12:47:02;95162.91;;;17.15;55.61
48386;BME280;34644;47.964;7.982;2024-03-02T12:54:03;95157.59;;;17.15;55.80
48386;BME280;34644;47.964;7.982;2024-03-02T13:01:05;95143.19;;;17.16;55.93
48386;BME280;34644;47.964;7.982;2024-03-02T13:08:06;95138.66;;;17.16;55.95
48386;BME280;34644;47.964;7.982;2024-03-02T13:15:07;95125.78;;;17.18;56.07
48386;BME280;34644;47.964;7.982;2024-03-02T13:22:08;95137.25;;;17.19;56.26
48386;BME280;34644;47.964;7.982;2024-03-02T13:29:08;95131.13;;;17.18;56.34
48386;BME280;34644;47.964;7.982;2024-03-02T13:36:09;95112.97;;;17.21;56.43
48386;BME280;34644;47.964;7.982;2024-03-02T13:43:09;95109.50;;;17.20;56.46
48386;BME280;34644;47.964;7.982;2024-03-02T13:50:10;95106.84;;;17.20;56.59
48386;BME280;34644;47.964;7.982;2024-03-02T13:57:11;95096.69;;;17.22;56.49
48386;BME280;34644;47.964;7.982;2024-03-02T14:04:14;95089.47;;;17.23;56.42
48386;BME280;34644;47.964;7.982;2024-03-02T14:11:14;95087.59;;;17.23;56.55
48386;BME280;34644;47.964;7.982;2024-03-02T14:18:15;95086.03;;;17.22;56.42
48386;BME280;34644;47.964;7.982;2024-03-02T14:25:16;95083.06;;;17.24;56.51
48386;BME280;34644;47.964;7.982;2024-03-02T14:32:16;95092.91;;;17.23;56.56
48386;BME280;34644;47.964;7.982;2024-03-02T14:39:17;95081.19;;;17.24;56.27
48386;BME280;34644;47.964;7.982;2024-03-02T14:46:21;95094.19;;;17.26;56.17
48386;BME280;34644;47.964;7.982;2024-03-02T14:53:21;95089.63;;;17.26;56.15
48386;BME280;34644;47.964;7.982;2024-03-02T15:00:22;95076.31;;;17.26;56.09
48386;BME280;34644;47.964;7.982;2024-03-02T15:07:22;95072.09;;;17.25;55.95
48386;BME280;34644;47.964;7.982;2024-03-02T15:14:22;95063.81;;;17.27;55.94
48386;BME280;34644;47.964;7.982;2024-03-02T15:21:23;95061.91;;;17.27;55.89
48386;BME280;34644;47.964;7.982;2024-03-02T15:28:23;95047.50;;;17.28;55.70
48386;BME280;34644;47.964;7.982;2024-03-02T15:35:23;95037.66;;;17.29;55.72
48386;BME280;34644;47.964;7.982;2024-03-02T15:42:23;95017.13;;;17.29;55.65
48386;BME280;34644;47.964;7.982;2024-03-02T15:49:24;95007.25;;;17.30;55.68
48386;BME280;34644;47.964;7.982;2024-03-02T15:56:24;95000.06;;;17.30;55.74
48386;BME280;34644;47.964;7.982;2024-03-02T16:03:24;94984.84;;;17.31;55.79
48386;BME280;34644;47.964;7.982;2024-03-02T16:10:24;94980.31;;;17.31;55.75
48386;BME280;34644;47.964;7.982;2024-03-02T16:17:25;94959.00;;;17.31;55.82
48386;BME280;34644;47.964;7.982;2024-03-02T16:24:25;94955.25;;;17.32;55.84
48386;BME280;34644;47.964;7.982;2024-03-02T16:31:26;94966.69;;;17.33;55.84
48386;BME280;34644;47.964;7.982;2024-03-02T16:38:26;94979.66;;;17.34;55.82
48386;BME280;34644;47.964;7.982;2024-03-02T16:45:26;94986.56;;;17.35;55.63
48386;BME280;34644;47.964;7.982;2024-03-02T16:52:26;94996.91;;;17.37;55.62
48386;BME280;34644;47.964;7.982;2024-03-02T16:59:30;94992.34;;;17.38;55.59
48386;BME280;34644;47.964;7.982;2024-03-02T17:06:30;94993.16;;;17.38;55.48
48386;BME280;34644;47.964;7.982;2024-03-02T17:13:30;94984.38;;;17.38;55.63
48386;BME280;34644;47.964;7.982;2024-03-02T17:20:30;94988.91;;;17.37;55.57
48386;BME280;34644;47.964;7.982;2024-03-02T17:27:31;94993.47;;;17.36;55.63
48386;BME280;34644;47.964;7.982;2024-03-02T17:34:31;95006.78;;;17.36;55.55
48386;BME280;34644;47.964;7.982;2024-03-02T17:41:31;95008.66;;;17.36;55.51
48386;BME280;34644;47.964;7.982;2024-03-02T17:48:32;95009.44;;;17.36;55.63
48386;BME280;34644;47.964;7.982;2024-03-02T17:55:32;95004.91;;;17.37;55.69
48386;BME280;34644;47.964;7.982;2024-03-02T18:02:32;95004.91;;;17.37;55.64
48386;BME280;34644;47.964;7.982;2024-03-02T18:09:33;94996.59;;;17.39;55.62
48386;BME280;34644;47.964;7.982;2024-03-02T18:16:33;94990.19;;;17.40;55.52
48386;BME280;34644;47.964;7.982;2024-03-02T18:23:34;94987.50;;;17.40;55.61
48386;BME280;34644;47.964;7.982;2024-03-02T18:30:34;94967.75;;;17.41;55.63
48386;BME280;34644;47.964;7.982;2024-03-02T18:37:37;94952.22;;;17.51;52.02
48386;BME280;34644;47.964;7.982;2024-03-02T18:44:38;94945.31;;;17.50;53.57
48386;BME280;34644;47.964;7.982;2024-03-02T18:51:38;94935.34;;;17.47;53.91
48386;BME280;34644;47.964;7.982;2024-03-02T18:58:41;94925.00;;;17.46;54.25
48386;BME280;34644;47.964;7.982;2024-03-02T19:05:41;94924.19;;;17.45;54.40
48386;BME280;34644;47.964;7.982;2024-03-02T19:12:42;94917.00;;;17.46;54.37
48386;BME280;34644;47.964;7.982;2024-03-02T19:19:42;94922.34;;;17.46;54.55
48386;BME280;34644;47.964;7.982;2024-03-02T19:26:42;94927.66;;;17.46;54.59
48386;BME280;34644;47.964;7.982;2024-03-02T19:33:43;94938.31;;;17.46;54.75
48386;BME280;34644;47.964;7.982;2024-03-02T19:40:45;94955.84;;;17.47;54.72
48386;BME280;34644;47.964;7.982;2024-03-02T19:47:45;94969.97;;;17.47;54.63
48386;BME280;34644;47.964;7.982;2024-03-02T19:54:45;94968.06;;;17.48;54.68
48386;BME280;34644;47.964;7.982;2024-03-02T20:01:45;94978.72;;;17.48;54.75
48386;BME280;34644;47.964;7.982;2024-03-02T20:08:46;94974.94;;;17.49;54.75
48386;BME280;34644;47.964;7.982;2024-03-02T20:15:46;94990.59;;;17.50;54.73
48386;BME280;34644;47.964;7.982;2024-03-02T20:22:46;94993.28;;;17.50;54.85
48386;BME280;34644;47.964;7.982;2024-03-02T20:29:47;94984.97;;;17.52;54.74
48386;BME280;34644;47.964;7.982;2024-03-02T20:36:47;94980.44;;;17.52;54.77
48386;BME280;34644;47.964;7.982;2024-03-02T20:43:48;94974.31;;;17.52;54.89
48386;BME280;34644;47.964;7.982;2024-03-02T20:50:48;94962.56;;;17.53;54.85
48386;BME280;34644;47.964;7.982;2024-03-02T20:57:48;94952.38;;;17.55;54.75
48386;BME280;34644;47.964;7.982;2024-03-02T21:04:49;94932.19;;;17.54;54.75
48386;BME280;34644;47.964;7.982;2024-03-02T21:11:49;94920.41;;;17.55;54.90
48386;BME280;34644;47.964;7.982;2024-03-02T21:18:49;94901.75;;;17.55;54.90
48386;BME280;34644;47.964;7.982;2024-03-02T21:25:50;94902.25;;;17.57;55.02
48386;BME280;34644;47.964;7.982;2024-03-02T21:32:53;94908.34;;;17.58;54.75
48386;BME280;34644;47.964;7.982;2024-03-02T21:39:54;94903.78;;;17.58;54.82
48386;BME280;34644;47.964;7.982;2024-03-02T21:46:54;94882.78;;;17.57;54.90
48386;BME280;34644;47.964;7.982;2024-03-02T21:53:54;94888.91;;;17.57;54.75
48386;BME280;34644;47.964;7.982;2024-03-02T22:00:55;94889.69;;;17.58;54.78
48386;BME280;34644;47.964;7.982;2024-03-02T22:07:56;94889.38;;;17.59;54.89
48386;BME280;34644;47.964;7.982;2024-03-02T22:14:57;94879.50;;;17.60;54.82
48386;BME280;34644;47.964;7.982;2024-03-02T22:21:57;94870.72;;;17.59;54.85
48386;BME280;34644;47.964;7.982;2024-03-02T22:28:57;94864.63;;;17.59;54.74
48386;BME280;34644;47.964;7.982;2024-03-02T22:35:58;94852.09;;;17.59;54.83
48386;BME280;34644;47.964;7.982;2024-03-02T22:42:58;94857.09;;;17.61;54.86
48386;BME280;34644;47.964;7.982;2024-03-02T22:49:58;94843.00;;;17.60;54.78
48386;BME280;34644;47.964;7.982;2024-03-02T22:56:58;94852.53;;;17.61;54.95
48386;BME280;34644;47.964;7.982;2024-03-02T23:03:59;94856.78;;;17.62;54.80
48386;BME280;34644;47.964;7.982;2024-03-02T23:10:59;94851.00;;;17.60;54.72
48386;BME280;34644;47.964;7.982;2024-03-02T23:17:59;94855.19;;;17.61;54.86
48386;BME280;34644;47.964;7.982;2024-03-02T23:24:59;94860.53;;;17.61;54.82
48386;BME280;34644;47.964;7.982;2024-03-02T23:32:00;94866.34;;;17.63;54.67
48386;BME280;34644;47.964;7.982;2024-03-02T23:39:00;94854.88;;;17.63;54.85
48386;BME280;34644;47.964;7.982;2024-03-02T23:46:04;94859.44;;;17.62;54.84
48386;BME280;34644;47.964;7.982;2024-03-02T23:53:04;94857.53;;;17.63;54.63
